createdAt,value
2022-08-23T00:01:18.979Z,97458.36471787347
2022-08-23T00:04:20.469Z,97459.68442946329
2022-08-23T00:07:16.768Z,97463.00740333843
2022-08-23T00:11:27.362Z,97462.9810106667
2022-08-23T00:14:19.548Z,97462.91153364937
2022-08-23T00:17:25.573Z,97462.93490631648
2022-08-23T00:21:16.611Z,97464.83098225154
2022-08-23T00:24:17.898Z,97468.2916771544
2022-08-23T00:27:17.257Z,97466.83877036876
2022-08-23T00:31:16.267Z,97464.67744760605
2022-08-23T00:34:16.659Z,97467.49769138491
2022-08-23T00:37:16.488Z,97464.9389830347
2022-08-23T00:41:16.281Z,97467.8707550118
2022-08-23T01:01:17.791Z,97463.41459368494
2022-08-23T01:04:17.415Z,97462.10694613516
2022-08-23T01:07:28.371Z,97460.25368290335
2022-08-23T01:11:23.162Z,97463.61133502508
2022-08-23T01:14:22.801Z,97460.26133775813
2022-08-23T01:17:22.929Z,97462.33396789947
2022-08-23T01:21:25.651Z,97461.63471672902
2022-08-23T01:24:19.208Z,97464.164777296
2022-08-23T01:27:16.980Z,97463.00627003513
2022-08-23T01:31:17.871Z,97459.75113408807
2022-08-23T01:34:23.869Z,97461.58813378368
2022-08-23T01:37:20.159Z,97464.13616271148
2022-08-23T01:41:15.635Z,97470.72380688714
2022-08-23T01:44:16.097Z,97475.06611063298
2022-08-23T01:47:16.069Z,97473.40714777596
2022-08-23T01:51:19.299Z,97473.59349153348
2022-08-23T01:54:16.768Z,97478.39318955906
2022-08-23T01:57:17.179Z,97482.85570229647
2022-08-23T02:01:16.948Z,97482.09806758915
2022-08-23T02:04:16.579Z,97481.37536470269
2022-08-23T02:07:16.570Z,97481.93576107683
2022-08-23T02:11:19.007Z,97475.50744123718
2022-08-23T02:14:18.740Z,97480.09130677782
2022-08-23T02:17:16.875Z,97479.16502039538
2022-08-23T02:21:16.285Z,97479.13579878355
2022-08-23T02:24:19.064Z,97482.23857635904
2022-08-23T02:27:16.885Z,97481.19871768664
2022-08-23T02:31:16.306Z,97480.6619310332
2022-08-23T02:34:17.942Z,97488.87747054221
2022-08-23T02:37:16.814Z,97487.99779392281
2022-08-23T02:41:17.363Z,97490.65302155212
2022-08-23T02:44:16.758Z,97491.193683381
2022-08-23T02:47:16.229Z,97489.3787480106
2022-08-23T02:51:17.127Z,97494.23303798842
2022-08-23T02:54:16.445Z,97495.23644222492
2022-08-23T02:57:16.491Z,97494.82345482131
2022-08-23T03:01:17.247Z,97495.89682768984
2022-08-23T03:04:16.710Z,97501.4047756691
2022-08-23T03:07:18.092Z,97499.36086933948
2022-08-23T03:11:19.051Z,97507.57069671835
2022-08-23T03:14:16.336Z,97511.72239556987
2022-08-23T03:17:16.001Z,97510.67770419858
2022-08-23T03:21:17.246Z,97509.7299726057
2022-08-23T03:24:17.026Z,97509.71049384317
2022-08-23T03:27:16.338Z,97512.59948555515
2022-08-23T03:31:16.412Z,97511.0850173537
2022-08-23T03:34:16.580Z,97513.40754466389
2022-08-23T03:37:16.809Z,97514.11523777815
2022-08-23T03:41:17.542Z,97513.90695671366
2022-08-23T03:44:16.972Z,97511.05258208195
2022-08-23T03:47:17.391Z,97506.83520409778
2022-08-23T03:51:17.076Z,97517.29113121751
2022-08-23T03:54:16.374Z,97517.96823529697
2022-08-23T03:57:16.176Z,97518.09178728849
2022-08-23T04:01:16.277Z,97521.54450938675
2022-08-23T04:04:16.615Z,97522.84039659431
2022-08-23T04:07:18.309Z,97527.96186341706
2022-08-23T04:11:15.815Z,97533.57064280636
2022-08-23T04:14:16.128Z,97532.36260336264
2022-08-23T04:17:16.123Z,97536.52135896735
2022-08-23T04:21:18.348Z,97538.22921897912
2022-08-23T04:24:17.303Z,97535.96104114366
2022-08-23T04:27:16.880Z,97531.91271708388
2022-08-23T04:31:17.241Z,97530.50736542324
2022-08-23T04:34:16.457Z,97533.23499655264
2022-08-23T04:37:16.243Z,97541.12056241235
2022-08-23T04:42:21.729Z,97542.14155222944
2022-08-23T04:44:16.005Z,97545.52456096321
2022-08-23T04:47:16.412Z,97548.54955725426
2022-08-23T04:51:16.592Z,97555.19896733141
2022-08-23T04:54:16.880Z,97558.74140438234
2022-08-23T04:57:16.771Z,97561.327054633
2022-08-23T05:01:16.349Z,97562.8232458779
2022-08-23T05:04:17.202Z,97561.54118554699
2022-08-23T05:07:16.571Z,97567.3798225544
2022-08-23T05:11:15.904Z,97570.68409267964
2022-08-23T05:14:15.988Z,97568.12239600364
2022-08-23T05:17:15.986Z,97571.97603050918
2022-08-23T05:21:18.101Z,97575.28563318682
2022-08-23T05:24:16.075Z,97573.90104121597
2022-08-23T05:27:16.148Z,97570.58293394368
2022-08-23T05:31:19.173Z,97575.4317802586
2022-08-23T05:34:16.727Z,97577.8891087688
2022-08-23T05:37:16.628Z,97580.93884404661
2022-08-23T05:41:17.054Z,97581.58416790087
2022-08-23T05:44:15.893Z,97586.34559545454
2022-08-23T05:47:16.919Z,97587.84976897067
2022-08-23T05:51:18.493Z,97593.83037522281
2022-08-23T05:54:16.706Z,97595.32411745115
2022-08-23T05:57:16.906Z,97590.55671508322
2022-08-23T06:01:17.333Z,97595.66669016785
2022-08-23T06:04:16.226Z,97594.10618583679
2022-08-23T06:07:16.836Z,97601.70321735904
2022-08-23T06:11:19.475Z,97598.78063409528
2022-08-23T06:14:16.739Z,97596.81851681702
2022-08-23T06:17:16.636Z,97600.51505688201
2022-08-23T06:21:16.101Z,97597.8418110789
2022-08-23T06:24:16.172Z,97598.20456768318
2022-08-23T06:27:16.104Z,97601.29574357356
2022-08-23T06:31:16.826Z,97600.70137579406
2022-08-23T06:34:20.417Z,97603.03804413936
2022-08-23T06:37:16.418Z,97600.8148436767
2022-08-23T06:41:16.309Z,97600.31800860308
2022-08-23T06:44:18.183Z,97597.93511863203
2022-08-23T06:47:16.923Z,97602.91351920135
2022-08-23T06:51:21.602Z,97603.97093888203
2022-08-23T06:54:18.629Z,97599.76575840812
2022-08-23T07:04:20.153Z,97598.91895781753
2022-08-23T07:07:16.789Z,97603.59862041699
2022-08-23T07:11:16.141Z,97601.17266494695
2022-08-23T07:14:19.198Z,97597.36648898618
2022-08-23T07:17:16.082Z,97602.47424851872
2022-08-23T07:21:15.879Z,97595.97678429115
2022-08-23T07:24:16.410Z,97604.95669335139
2022-08-23T07:27:16.000Z,97608.95128459489
2022-08-23T07:31:18.800Z,97608.33548248948
2022-08-23T07:34:16.938Z,97602.03174931249
2022-08-23T07:37:18.873Z,97601.1911041687
2022-08-23T07:41:17.231Z,97606.64788735428
2022-08-23T07:44:18.171Z,97607.12864653957
2022-08-23T07:47:16.784Z,97607.22963889911
2022-08-23T07:51:15.698Z,97609.41870919487
2022-08-23T07:54:17.365Z,97609.8583217247
2022-08-23T07:57:16.531Z,97612.70129499135
2022-08-23T08:01:18.464Z,97614.85852321477
2022-08-23T08:04:16.600Z,97615.46876660315
2022-08-23T08:07:20.421Z,97614.36762943021
2022-08-23T08:11:18.605Z,97612.793640907
2022-08-23T08:14:16.686Z,97609.66753803122
2022-08-23T08:17:17.584Z,97611.37955791845
2022-08-23T08:21:17.647Z,97613.95196108123
2022-08-23T08:24:17.358Z,97617.18191444027
2022-08-23T08:27:16.704Z,97616.85056430788
2022-08-23T08:31:16.919Z,97612.85625068718
2022-08-23T08:34:18.222Z,97611.08845030304
2022-08-23T08:37:16.732Z,97611.66902148978
2022-08-23T08:41:20.966Z,97609.18927076765
2022-08-23T08:44:26.108Z,97606.1954163331
2022-08-23T08:47:21.448Z,97612.11127461305
2022-08-23T08:51:32.430Z,97615.45312384907
2022-08-23T08:54:20.799Z,97612.5428253636
2022-08-23T08:57:19.454Z,97606.5676636753
2022-08-23T09:01:17.961Z,97612.2140559732
2022-08-23T09:04:17.061Z,97610.77634954546
2022-08-23T09:07:31.146Z,97610.41628584628
2022-08-23T09:11:29.077Z,97612.46084386097
2022-08-23T09:15:31.651Z,97615.03452955882
2022-08-23T09:17:23.762Z,97614.935094037
2022-08-23T09:21:17.077Z,97612.37256779743
2022-08-23T09:24:16.271Z,97616.40362410457
2022-08-23T09:27:16.268Z,97615.88169225384
2022-08-23T09:31:36.669Z,97613.55561131555
2022-08-23T09:34:22.132Z,97611.7203886989
2022-08-23T09:37:19.735Z,97610.228406286
2022-08-23T09:41:23.112Z,97613.13228428246
2022-08-23T09:44:33.875Z,97615.21975224104
2022-08-23T09:47:16.995Z,97617.84951896913
2022-08-23T09:51:23.462Z,97612.69311116004
2022-08-23T09:54:19.850Z,97616.15070859891
2022-08-23T09:57:23.996Z,97611.57108671559
2022-08-23T10:01:20.905Z,97612.84918545518
2022-08-23T10:04:21.151Z,97610.39336510723
2022-08-23T10:07:27.303Z,97614.98040962644
2022-08-23T10:11:20.180Z,97608.88405402169
2022-08-23T10:14:24.308Z,97607.72565652699
2022-08-23T10:17:28.359Z,97610.5766635834
2022-08-23T10:21:24.219Z,97610.11860722704
2022-08-23T10:24:25.449Z,97610.17946269034
2022-08-23T10:31:27.339Z,97612.63951624467
2022-08-23T10:34:27.185Z,97606.8529639783
2022-08-23T10:37:29.407Z,97608.87257028978
2022-08-23T10:41:37.110Z,97605.89376185239
2022-08-23T10:44:24.576Z,97599.94901672847
2022-08-23T10:47:26.930Z,97602.73476709181
2022-08-23T10:51:22.679Z,97598.42770105111
2022-08-23T10:54:21.416Z,97601.63905871999
2022-08-23T10:57:19.004Z,97591.30373413989
2022-08-23T11:01:20.171Z,97595.75826807423
2022-08-23T11:04:25.656Z,97596.38204888852
2022-08-23T11:07:18.996Z,97589.20391971908
2022-08-23T11:11:39.510Z,97587.70156036284
2022-08-23T11:14:35.597Z,97594.58098199687
2022-08-23T11:17:26.204Z,97587.00279345909
2022-08-23T11:21:44.041Z,97584.10176174653
2022-08-23T11:25:01.524Z,97583.86147333961
2022-08-23T11:27:37.540Z,97587.92809333556
2022-08-23T11:31:24.665Z,97580.77069903514
2022-08-23T11:34:22.381Z,97578.09734957047
2022-08-23T11:37:27.782Z,97578.14085540507
2022-08-23T11:41:23.397Z,97567.96091674306
2022-08-23T11:44:23.231Z,97566.10147773486
2022-08-23T11:47:27.646Z,97557.50959952419
2022-08-23T11:51:26.092Z,97555.52887283202
2022-08-23T11:54:31.039Z,97554.0040985436
2022-08-23T11:57:25.166Z,97557.85621483171
2022-08-23T12:01:16.678Z,97555.31923796063
2022-08-23T12:04:32.281Z,97548.55603243489
2022-08-23T12:07:43.173Z,97543.66294216791
2022-08-23T12:11:17.620Z,97539.3678129014
2022-08-23T12:14:34.547Z,97537.99619183494
2022-08-23T12:21:21.319Z,97535.19644865398
2022-08-23T12:24:24.098Z,97534.42209540894
2022-08-23T12:27:28.746Z,97523.50139808618
2022-08-23T12:31:22.432Z,97523.65257263179
2022-08-23T12:34:24.258Z,97521.83155981211
2022-08-23T12:37:27.386Z,97527.28689179596
2022-08-23T12:41:21.918Z,97509.49565323119
2022-08-23T12:44:20.023Z,97504.85434609688
2022-08-23T12:47:19.535Z,97507.54884952215
2022-08-23T12:51:17.226Z,97508.78127182869
2022-08-23T12:54:20.336Z,97504.81518185901
2022-08-23T12:57:27.640Z,97503.5148564344
2022-08-23T13:01:21.567Z,97493.63163912958
2022-08-23T13:04:17.061Z,97493.32867497444
2022-08-23T13:07:20.264Z,97490.81462742461
2022-08-23T13:11:19.938Z,97487.87733746068
2022-08-23T13:14:26.183Z,97489.17385923391
2022-08-23T13:17:19.075Z,97487.74463744767
2022-08-23T13:21:23.512Z,97496.84733159574
2022-08-23T13:24:38.284Z,97494.69924048996
2022-08-23T13:27:20.091Z,97496.85089836447
2022-08-23T13:31:15.782Z,97486.08326637623
2022-08-23T13:34:33.865Z,97488.53026020547
2022-08-23T13:37:20.689Z,97487.48470099854
2022-08-23T13:41:30.819Z,97469.60136418695
2022-08-23T13:44:19.318Z,97475.42828484833
2022-08-23T13:47:22.190Z,97485.39987950755
2022-08-23T13:51:23.093Z,97483.92995405097
2022-08-23T13:54:16.623Z,97487.30032585596
2022-08-23T13:57:16.992Z,97487.48277979765
2022-08-23T14:01:18.927Z,97481.20499329372
2022-08-23T14:04:16.142Z,97488.34925608787
2022-08-23T14:07:16.761Z,97480.08587551834
2022-08-23T14:11:17.110Z,97488.96952614962
2022-08-23T14:14:17.163Z,97484.32341570954
2022-08-23T14:17:20.543Z,97481.94170038949
2022-08-23T14:21:16.106Z,97486.89740378885
2022-08-23T14:24:16.573Z,97477.54552654584
2022-08-23T14:27:16.539Z,97478.38308651317
2022-08-23T14:31:16.632Z,97470.67805077015
2022-08-23T14:41:18.715Z,97464.38984994892
2022-08-23T14:44:16.594Z,97468.22748857319
2022-08-23T14:47:17.155Z,97471.50652215438
2022-08-23T14:51:24.344Z,97466.9203197128
2022-08-23T14:54:19.483Z,97468.21856704282
2022-08-23T14:57:16.703Z,97472.90183217305
2022-08-23T15:01:17.057Z,97477.20806418148
2022-08-23T15:04:18.633Z,97476.8908466116
2022-08-23T15:07:18.656Z,97478.92953715424
2022-08-23T15:14:17.219Z,97487.35661875195
2022-08-23T15:17:16.966Z,97482.46163501419
2022-08-23T15:21:17.371Z,97480.33687087537
2022-08-23T15:24:16.579Z,97479.50649669013
2022-08-23T15:27:17.601Z,97482.35727796574
2022-08-23T15:31:16.828Z,97477.49593640164
2022-08-23T15:34:15.975Z,97477.09846523947
2022-08-23T15:37:19.457Z,97474.09302519508
2022-08-23T15:41:18.059Z,97474.3321599218
2022-08-23T15:44:16.589Z,97479.00829936189
2022-08-23T15:47:21.735Z,97481.46542010971
2022-08-23T15:51:16.737Z,97485.30193143403
2022-08-23T15:54:16.271Z,97484.72091742347
2022-08-23T15:57:20.911Z,97487.14860233596
2022-08-23T16:01:19.834Z,97483.59882801375
2022-08-23T16:04:18.188Z,97483.1828622552
2022-08-23T16:07:17.433Z,97481.41024987792
2022-08-23T16:11:15.651Z,97481.69812705115
2022-08-23T16:14:16.240Z,97484.99544130763
2022-08-23T16:17:16.776Z,97483.25922162218
2022-08-23T16:21:16.858Z,97484.20215373085
2022-08-23T16:24:16.792Z,97490.20057941816
2022-08-23T16:27:16.092Z,97485.60870041512
2022-08-23T16:31:16.195Z,97490.99312836265
2022-08-23T16:34:18.488Z,97492.78604077529
2022-08-23T16:37:16.378Z,97495.97778525915
2022-08-23T16:41:15.811Z,97495.13148209495
2022-08-23T16:44:16.318Z,97491.66011866556
2022-08-23T16:47:16.803Z,97497.27418023607
2022-08-23T16:51:19.596Z,97501.97754327342
2022-08-23T16:54:19.912Z,97502.4670411264
2022-08-23T16:57:18.337Z,97505.13717356353
2022-08-23T17:01:17.702Z,97500.55243562328
2022-08-23T17:04:18.998Z,97506.01126857601
2022-08-23T17:07:17.046Z,97507.84130056783
2022-08-23T17:11:18.251Z,97513.73380241999
2022-08-23T17:14:16.489Z,97522.35716154973
2022-08-23T17:17:17.330Z,97528.23906068527
2022-08-23T17:21:16.759Z,97531.54936713797
2022-08-23T17:24:16.571Z,97537.90098902097
2022-08-23T17:27:19.133Z,97544.91638494257
2022-08-23T17:31:17.423Z,97552.71774111282
2022-08-23T17:34:16.744Z,97553.61052215038
2022-08-23T17:37:19.317Z,97556.78800751573
2022-08-23T17:41:17.766Z,97560.59163296377
2022-08-23T17:44:17.108Z,97565.86828335858
2022-08-23T17:47:17.764Z,97566.08958082639
2022-08-23T17:51:16.329Z,97563.50919135688
2022-08-23T17:54:16.767Z,97569.18235426236
2022-08-23T17:57:16.645Z,97566.22493443164
2022-08-23T18:01:16.751Z,97581.247185521
2022-08-23T18:04:17.087Z,97588.39825954915
2022-08-23T18:07:16.824Z,97588.44826321983
2022-08-23T18:11:16.281Z,97588.17714564454
2022-08-23T18:14:16.440Z,97589.501530144
2022-08-23T18:17:16.982Z,97595.81937356133
2022-08-23T18:21:17.133Z,97597.27188286559
2022-08-23T18:24:18.043Z,97599.85826134832
2022-08-23T18:28:22.037Z,97604.09615486654
2022-08-23T18:31:16.196Z,97606.00010268246
2022-08-23T18:34:17.127Z,97606.66663099255
2022-08-23T18:37:17.738Z,97614.25420657593
2022-08-23T18:41:16.647Z,97615.10824236214
2022-08-23T18:44:17.364Z,97624.31149934074
2022-08-23T18:47:17.066Z,97627.79796846572
2022-08-23T18:51:17.834Z,97635.6381196826
2022-08-23T18:54:16.580Z,97641.39549728057
2022-08-23T18:57:16.513Z,97646.88895706824
2022-08-23T19:01:22.110Z,97653.86283774361
2022-08-23T19:04:50.533Z,97655.01989491793
2022-08-23T19:07:16.538Z,97656.7045041815
2022-08-23T19:11:18.167Z,97663.92339429141
2022-08-23T19:14:17.742Z,97673.59864006875
2022-08-23T19:17:17.977Z,97675.26908240943
2022-08-23T19:21:19.607Z,97687.01710351797
2022-08-23T19:24:16.769Z,97688.63126323883
2022-08-23T19:27:16.613Z,97695.74762929171
2022-08-23T19:31:17.490Z,97698.09659114419
2022-08-23T19:34:19.885Z,97696.85852933569
2022-08-23T19:37:22.939Z,97700.59888643514
2022-08-23T19:41:16.385Z,97710.83633417547
2022-08-23T19:44:17.819Z,97713.17006686183
2022-08-23T19:47:20.659Z,97712.63155353785
2022-08-23T19:51:18.996Z,97718.67241038164
2022-08-23T19:54:17.320Z,97723.77653142734
2022-08-23T19:57:16.815Z,97719.55156793106
2022-08-23T20:01:16.849Z,97729.71392972728
2022-08-23T20:04:17.518Z,97733.24516334927
2022-08-23T20:07:17.504Z,97732.48323885963
2022-08-23T20:11:16.561Z,97725.87415635123
2022-08-23T20:14:17.254Z,97726.43344000955
2022-08-23T20:17:17.472Z,97728.41556508935
2022-08-23T20:21:17.818Z,97735.26967934662
2022-08-23T20:24:17.290Z,97735.03461461286
2022-08-23T20:27:24.540Z,97739.00617823897
2022-08-23T20:31:18.639Z,97737.34018510296
2022-08-23T20:34:18.661Z,97731.56025175317
2022-08-23T20:37:17.162Z,97733.46487765104
2022-08-23T20:41:16.885Z,97734.52547722068
2022-08-23T20:44:16.870Z,97738.24986930052
2022-08-23T20:47:16.514Z,97739.42459080498
2022-08-23T20:51:18.491Z,97736.93538237225
2022-08-23T20:54:18.208Z,97740.98615450117
2022-08-23T20:57:17.514Z,97733.1694945247
2022-08-23T21:01:17.369Z,97739.32269157788
2022-08-23T21:04:17.892Z,97736.25090389744
2022-08-23T21:07:17.021Z,97739.05151081365
2022-08-23T21:11:16.820Z,97741.46707985502
2022-08-23T21:14:18.526Z,97745.70059287953
2022-08-23T21:17:16.531Z,97752.32314950568
2022-08-23T21:21:21.005Z,97758.03839051804
2022-08-23T21:24:17.547Z,97756.69052679591
2022-08-23T21:27:17.163Z,97755.10172198275
2022-08-23T21:31:19.986Z,97754.68464057494
2022-08-23T21:34:18.121Z,97757.10526462739
2022-08-23T21:37:17.016Z,97758.13548933364
2022-08-23T21:41:30.728Z,97760.82566372558
2022-08-23T21:44:19.908Z,97759.50368026682
2022-08-23T21:47:16.453Z,97760.33792810059
2022-08-23T21:51:16.839Z,97760.38842896577
2022-08-23T21:54:17.977Z,97756.57693068116
2022-08-23T21:57:17.418Z,97751.06606040936
2022-08-23T22:01:17.273Z,97751.58425693288
2022-08-23T22:04:17.546Z,97757.0883551392
2022-08-23T22:07:17.380Z,97754.09122489103
2022-08-23T22:11:16.585Z,97754.14304750263
2022-08-23T22:14:20.833Z,97752.59295473638
2022-08-23T22:17:18.292Z,97751.7645259484
2022-08-23T22:21:16.761Z,97749.75429932156
2022-08-23T22:24:20.019Z,97747.12684014981
2022-08-23T22:27:17.301Z,97745.765247168
2022-08-23T22:31:16.272Z,97747.03218801256
2022-08-23T22:34:16.692Z,97743.18866870402
2022-08-23T22:37:16.461Z,97743.45757546245
2022-08-23T22:41:19.539Z,97744.61117852667
2022-08-23T22:44:17.981Z,97742.92230413982
2022-08-23T22:47:17.740Z,97745.29818264999
2022-08-23T22:51:19.640Z,97740.79165956756
2022-08-23T22:54:17.219Z,97737.79130336444
2022-08-23T22:57:16.814Z,97738.52498042888
2022-08-23T23:01:19.133Z,97732.39730970848
2022-08-23T23:04:17.968Z,97732.68692248774
2022-08-23T23:08:40.994Z,97737.69306648377
2022-08-23T23:11:18.291Z,97733.99342224078
2022-08-23T23:14:19.369Z,97726.04416034439
2022-08-23T23:17:16.847Z,97721.51439668656
2022-08-23T23:21:16.563Z,97719.70650875695
2022-08-23T23:24:19.290Z,97711.3129457844
2022-08-23T23:27:16.249Z,97711.79597088919
2022-08-23T23:31:18.605Z,97712.42821691211
2022-08-23T23:34:16.487Z,97711.8685288584
2022-08-23T23:37:16.783Z,97711.93674852683
2022-08-23T23:41:16.092Z,97703.87987918375
2022-08-23T23:44:16.702Z,97701.78450370135
2022-08-23T23:47:18.067Z,97702.06073415007
2022-08-23T23:51:20.725Z,97700.3444395248
2022-08-23T23:54:16.353Z,97700.79452760001
2022-08-23T23:57:16.574Z,97702.60306701167
